Time;durP1;ratioP1;P1;durP2;ratioP2;P2;SDS_P1;SDS_P2;PMS_P1;PMS_P2;Temp;Humidity;BMP_temperature;BMP_pressure;BME280_temperature;BME280_humidity;BME280_pressure;Samples;Min_cycle;Max_cycle;Signal;HPM_P1;HPM_P2
2021/07/13 00:00:23;;;;;;;11.35;10.18;;;;;;;21.43;67.70;100600.06;699769;28;1512;-62
2021/07/13 00:00:44;;;;;;;11.63;10.27;;;;;;;21.45;67.46;100599.00;697237;28;85793;-62
2021/07/13 00:01:06;;;;;;;11.05;9.95;;;;;;;21.44;67.46;100598.16;699498;28;20370;-62
2021/07/13 00:01:27;;;;;;;11.10;10.02;;;;;;;21.43;67.55;100608.31;698930;28;44331;-62
2021/07/13 00:01:48;;;;;;;10.85;9.85;;;;;;;21.43;67.35;100596.50;699865;28;22373;-62
2021/07/13 00:02:11;;;;;;;11.18;10.18;;;;;;;21.42;67.34;100598.41;699909;28;917;-62
2021/07/13 00:02:32;;;;;;;11.00;9.98;;;;;;;21.42;67.71;100598.41;697889;28;46437;-62
2021/07/13 00:02:54;;;;;;;11.35;10.10;;;;;;;21.42;67.63;100603.06;699902;28;22397;-62
2021/07/13 00:03:15;;;;;;;10.82;9.70;;;;;;;21.41;67.61;100601.41;698536;28;40204;-62
2021/07/13 00:03:36;;;;;;;11.27;10.20;;;;;;;21.40;67.50;100602.50;699669;28;24311;-62
2021/07/13 00:03:58;;;;;;;11.30;10.00;;;;;;;21.39;67.62;100601.69;699585;28;23172;-62
2021/07/13 00:04:19;;;;;;;11.27;10.10;;;;;;;21.39;67.59;100595.34;698847;28;22381;-62
2021/07/13 00:04:41;;;;;;;10.48;9.48;;;;;;;21.37;67.72;100598.34;699202;28;22375;-62
2021/07/13 00:05:03;;;;;;;10.43;9.43;;;;;;;21.37;67.68;100597.50;698843;28;46298;-62
2021/07/13 00:05:25;;;;;;;10.50;9.50;;;;;;;21.36;67.75;100604.09;698196;28;39129;-61
2021/07/13 00:05:48;;;;;;;11.10;9.90;;;;;;;21.35;67.78;100602.44;698718;28;43433;-62
2021/07/13 00:06:10;;;;;;;10.95;9.82;;;;;;;21.35;67.71;100596.94;698581;28;42941;-62
2021/07/13 00:06:31;;;;;;;10.82;9.77;;;;;;;21.34;67.87;100598.03;698111;28;69351;-62
2021/07/13 00:06:52;;;;;;;10.75;9.73;;;;;;;21.35;67.87;100599.69;700078;28;7518;-62
2021/07/13 00:07:14;;;;;;;10.80;9.70;;;;;;;21.35;67.91;100602.44;699632;28;23462;-62
2021/07/13 00:07:35;;;;;;;11.43;9.80;;;;;;;21.35;67.87;100596.94;700050;28;2042;-62
2021/07/13 00:07:57;;;;;;;12.60;10.65;;;;;;;21.34;67.88;100601.59;700752;28;861;-62
2021/07/13 00:08:18;;;;;;;11.32;10.23;;;;;;;21.33;67.80;100601.84;698229;28;45295;-62
2021/07/13 00:08:39;;;;;;;11.13;10.05;;;;;;;21.33;67.97;100596.34;699495;28;12485;-62
2021/07/13 00:09:01;;;;;;;10.50;9.60;;;;;;;21.32;68.01;100598.28;699415;28;15148;-62
2021/07/13 00:09:23;;;;;;;10.68;9.68;;;;;;;21.32;67.72;100600.19;697224;28;45261;-62
2021/07/13 00:09:48;;;;;;;10.80;9.70;;;;;;;21.30;67.98;100596.84;698453;28;61739;-62
2021/07/13 00:10:11;;;;;;;10.50;9.50;;;;;;;21.29;68.07;100593.28;699413;28;15029;-62
2021/07/13 00:10:36;;;;;;;11.18;10.05;;;;;;;21.29;68.07;100597.94;697799;28;70325;-62
2021/07/13 00:10:58;;;;;;;10.75;9.68;;;;;;;21.28;68.06;100594.34;696031;28;113290;-62
2021/07/13 00:11:19;;;;;;;10.83;9.77;;;;;;;21.28;68.04;100601.78;698830;28;46690;-62
2021/07/13 00:11:40;;;;;;;10.93;9.82;;;;;;;21.27;68.35;100595.47;699101;28;40809;-62
2021/07/13 00:12:02;;;;;;;11.32;10.13;;;;;;;21.27;68.09;100605.59;699579;28;23480;-62
2021/07/13 00:12:23;;;;;;;10.73;9.63;;;;;;;21.26;68.00;100602.03;699517;28;22400;-62
2021/07/13 00:12:45;;;;;;;10.77;9.73;;;;;;;21.26;68.19;100598.47;699274;28;23537;-62
2021/07/13 00:13:06;;;;;;;10.25;9.25;;;;;;;21.24;68.12;100594.03;698645;28;44503;-62
2021/07/13 00:13:27;;;;;;;11.52;9.48;;;;;;;21.24;68.20;100594.03;697871;28;46360;-62
2021/07/13 00:13:48;;;;;;;11.13;9.80;;;;;;;21.23;67.87;100603.34;699266;28;23523;-62
2021/07/13 00:14:10;;;;;;;11.00;9.90;;;;;;;21.24;68.14;100596.78;699030;28;24313;-62
2021/07/13 00:14:32;;;;;;;10.50;9.55;;;;;;;21.24;68.37;100605.03;698620;28;46578;-61
2021/07/13 00:14:53;;;;;;;10.65;9.65;;;;;;;21.24;67.96;100599.53;700186;28;21551;-61
2021/07/13 00:15:17;;;;;;;10.88;9.88;;;;;;;21.24;68.00;100593.22;699871;28;12117;-62
2021/07/13 00:15:42;;;;;;;11.40;10.30;;;;;;;21.24;67.81;100596.78;693047;28;115682;-61
2021/07/13 00:16:03;;;;;;;11.02;9.82;;;;;;;21.24;67.81;100606.94;693866;28;93238;-61
2021/07/13 00:16:24;;;;;;;11.02;10.02;;;;;;;21.26;68.04;100598.47;696435;28;23481;-62
2021/07/13 00:16:45;;;;;;;11.32;10.30;;;;;;;21.28;67.95;100599.03;696816;28;15344;-61
2021/07/13 00:17:06;;;;;;;11.45;10.35;;;;;;;21.30;67.73;100600.44;696461;28;23430;-62
2021/07/13 00:17:30;;;;;;;11.90;10.30;;;;;;;21.32;67.93;100602.94;696277;28;46550;-61
2021/07/13 00:17:52;;;;;;;11.35;10.20;;;;;;;21.33;67.79;100599.09;697255;28;93232;-62
2021/07/13 00:18:13;;;;;;;11.05;10.05;;;;;;;21.34;67.80;100596.09;698353;28;44589;-61
2021/07/13 00:18:36;;;;;;;11.73;10.13;;;;;;;21.36;67.67;100604.09;699332;28;22425;-61
2021/07/13 00:18:58;;;;;;;11.20;10.20;;;;;;;21.37;67.68;100595.59;697624;28;67554;-61
2021/07/13 00:19:19;;;;;;;11.85;10.75;;;;;;;21.38;67.53;100601.94;693722;28;40224;-62
2021/07/13 00:19:40;;;;;;;11.57;10.38;;;;;;;21.39;67.38;100592.59;696510;28;23451;-61
2021/07/13 00:20:03;;;;;;;11.45;10.32;;;;;;;21.40;67.55;100597.00;696657;28;23508;-62
2021/07/13 00:20:26;;;;;;;11.40;10.30;;;;;;;21.38;67.34;100594.50;695755;28;43581;-61
2021/07/13 00:20:47;;;;;;;11.05;9.98;;;;;;;21.39;67.46;100603.56;695011;28;69476;-61
2021/07/13 00:21:08;;;;;;;11.63;10.52;;;;;;;21.37;67.46;100598.34;695693;28;23422;-61
2021/07/13 00:21:30;;;;;;;11.65;10.55;;;;;;;21.37;67.46;100594.78;699749;28;21191;-61
2021/07/13 00:21:51;;;;;;;12.63;10.23;;;;;;;21.36;67.45;100593.09;699960;28;15754;-62
2021/07/13 00:22:13;;;;;;;11.18;10.00;;;;;;;21.35;67.51;100597.78;699329;28;23331;-62
2021/07/13 00:22:34;;;;;;;10.98;9.98;;;;;;;21.35;67.59;100596.94;698143;28;44571;-61
2021/07/13 00:22:55;;;;;;;12.07;10.05;;;;;;;21.34;67.48;100598.84;699047;28;23409;-61
2021/07/13 00:23:16;;;;;;;11.10;9.87;;;;;;;21.32;67.47;100603.75;698025;28;47239;-61
2021/07/13 00:23:38;;;;;;;11.30;10.20;;;;;;;21.31;67.86;100591.09;697388;28;36163;-61
2021/07/13 00:24:00;;;;;;;10.95;9.88;;;;;;;21.30;67.70;100589.47;698400;28;46248;-62
2021/07/13 00:24:31;;;;;;;11.20;9.77;;;;;;;21.29;67.79;100586.97;697496;28;98704;-61
2021/07/13 00:24:52;;;;;;;11.15;10.10;;;;;;;21.28;67.67;100588.03;699132;28;1040;-62
2021/07/13 00:25:15;;;;;;;12.00;10.80;;;;;;;21.27;67.47;100600.09;699369;28;21338;-61
2021/07/13 00:25:36;;;;;;;10.88;9.88;;;;;;;21.24;67.95;100590.47;697839;28;70196;-62
2021/07/13 00:25:57;;;;;;;11.13;10.05;;;;;;;21.24;67.72;100585.78;699640;28;13603;-61
2021/07/13 00:26:19;;;;;;;11.93;10.10;;;;;;;21.24;67.94;100579.47;697859;28;45099;-61
2021/07/13 00:26:40;;;;;;;11.50;9.95;;;;;;;21.22;67.86;100585.22;699800;28;9024;-61
2021/07/13 00:27:02;;;;;;;11.32;10.23;;;;;;;21.22;67.77;100587.13;699932;28;897;-61
2021/07/13 00:27:23;;;;;;;11.13;10.13;;;;;;;21.20;67.82;100584.63;698360;28;45371;-61
2021/07/13 00:27:44;;;;;;;11.50;10.40;;;;;;;21.19;67.57;100582.13;699312;28;19868;-62
2021/07/13 00:28:06;;;;;;;11.35;10.10;;;;;;;21.19;67.66;100585.72;697644;28;13278;-62
2021/07/13 00:28:27;;;;;;;11.32;10.23;;;;;;;21.18;67.76;100595.03;698271;28;46343;-61
2021/07/13 00:28:49;;;;;;;11.45;10.35;;;;;;;21.16;68.10;100583.47;699257;28;23510;-61
2021/07/13 00:29:10;;;;;;;10.85;9.85;;;;;;;21.15;68.11;100589.22;698674;28;47201;-61
2021/07/13 00:29:31;;;;;;;11.43;10.32;;;;;;;21.15;67.98;100581.00;698823;28;12340;-62
2021/07/13 00:29:52;;;;;;;11.73;10.30;;;;;;;21.14;67.99;100582.88;699371;28;19445;-61
2021/07/13 00:30:16;;;;;;;11.10;10.07;;;;;;;21.13;68.13;100577.63;699005;28;19762;-61
2021/07/13 00:30:38;;;;;;;10.95;9.85;;;;;;;21.12;68.06;100581.50;696808;28;90782;-61
2021/07/13 00:30:59;;;;;;;11.52;10.32;;;;;;;21.12;68.06;100584.25;697893;28;44378;-61
2021/07/13 00:31:20;;;;;;;11.10;10.00;;;;;;;21.11;67.96;100586.13;698749;28;22390;-62
2021/07/13 00:31:42;;;;;;;11.20;10.15;;;;;;;21.09;68.22;100582.81;699132;28;22313;-61
2021/07/13 00:32:04;;;;;;;11.52;10.45;;;;;;;21.10;68.27;100573.50;699464;28;22426;-61
2021/07/13 00:32:25;;;;;;;11.80;10.70;;;;;;;21.11;68.05;100585.31;697189;28;70147;-61
2021/07/13 00:32:48;;;;;;;11.20;9.98;;;;;;;21.10;68.20;100581.75;698205;28;46333;-61
2021/07/13 00:33:09;;;;;;;11.07;9.98;;;;;;;21.09;68.23;100582.81;696143;28;92259;-61
2021/07/13 00:33:30;;;;;;;11.20;10.10;;;;;;;21.06;68.33;100567.69;699202;28;22478;-62
2021/07/13 00:33:53;;;;;;;11.13;10.02;;;;;;;21.08;68.12;100575.66;698995;28;21549;-61
2021/07/13 00:34:14;;;;;;;11.40;10.20;;;;;;;21.09;68.22;100576.50;698406;28;44192;-61
2021/07/13 00:34:35;;;;;;;11.90;10.63;;;;;;;21.07;68.25;100568.50;699794;28;22402;-61
2021/07/13 00:34:56;;;;;;;12.18;10.93;;;;;;;21.06;68.08;100577.81;699162;28;20830;-62
2021/07/13 00:35:17;;;;;;;11.45;10.25;;;;;;;21.06;68.26;100575.06;699324;28;24338;-61
2021/07/13 00:35:39;;;;;;;11.45;10.23;;;;;;;21.06;68.06;100577.81;698983;28;23158;-61
2021/07/13 00:36:01;;;;;;;11.13;10.02;;;;;;;21.05;68.41;100578.94;699748;28;14689;-61
2021/07/13 00:36:26;;;;;;;11.07;10.02;;;;;;;21.05;68.18;100582.50;697658;28;37611;-61
2021/07/13 00:36:47;;;;;;;11.55;10.35;;;;;;;21.04;67.98;100578.06;699499;28;9567;-61
2021/07/13 00:37:08;;;;;;;11.38;10.27;;;;;;;21.02;67.90;100577.50;699884;28;11786;-62
2021/07/13 00:37:30;;;;;;;11.10;10.10;;;;;;;21.03;67.94;100583.81;699383;28;22181;-61
2021/07/13 00:37:51;;;;;;;11.52;10.32;;;;;;;21.01;68.17;100580.50;699481;28;29277;-62
2021/07/13 00:38:12;;;;;;;10.98;9.98;;;;;;;21.01;68.13;100580.50;699848;28;2227;-62
2021/07/13 00:38:33;;;;;;;11.27;10.18;;;;;;;21.00;68.38;100579.69;699560;28;23494;-62
2021/07/13 00:38:54;;;;;;;11.43;10.27;;;;;;;21.00;68.02;100581.56;699799;28;21550;-62
2021/07/13 00:39:16;;;;;;;12.90;10.23;;;;;;;20.99;68.13;100586.25;699275;28;23478;-61
2021/07/13 00:39:38;;;;;;;11.32;10.13;;;;;;;21.00;68.38;100584.31;698096;28;45437;-61
2021/07/13 00:39:59;;;;;;;11.32;10.23;;;;;;;20.99;68.38;100582.66;698949;28;23527;-62
2021/07/13 00:40:21;;;;;;;11.60;10.45;;;;;;;21.00;68.09;100589.81;698454;28;38719;-62
2021/07/13 00:40:44;;;;;;;11.52;10.27;;;;;;;21.00;68.03;100584.31;698538;28;34821;-62
2021/07/13 00:41:05;;;;;;;11.98;10.68;;;;;;;21.00;68.28;100587.91;698145;28;49104;-62
2021/07/13 00:41:26;;;;;;;11.57;10.38;;;;;;;21.00;68.41;100582.41;699187;28;23519;-62
2021/07/13 00:41:47;;;;;;;11.45;10.30;;;;;;;21.02;68.19;100593.16;699631;28;22420;-62
2021/07/13 00:42:12;;;;;;;11.57;10.38;;;;;;;21.01;68.28;100592.31;698898;28;23413;-62
2021/07/13 00:42:35;;;;;;;11.57;10.48;;;;;;;21.01;68.15;100583.25;697739;28;61095;-62
2021/07/13 00:42:57;;;;;;;11.65;10.45;;;;;;;21.01;68.10;100581.31;702570;28;1300;-62
2021/07/13 00:43:19;;;;;;;11.80;10.50;;;;;;;21.02;68.33;100583.00;702259;28;1569;-63
2021/07/13 00:43:40;;;;;;;10.70;9.70;;;;;;;21.04;68.09;100591.81;700707;28;46399;-62
2021/07/13 00:44:02;;;;;;;10.55;9.65;;;;;;;21.05;68.08;100587.16;701176;28;21544;-62
2021/07/13 00:44:24;;;;;;;11.38;10.30;;;;;;;21.06;68.15;100594.28;701466;28;21051;-63
2021/07/13 00:44:45;;;;;;;11.43;10.30;;;;;;;21.06;68.06;100586.91;700574;28;34141;-62
2021/07/13 00:45:07;;;;;;;11.60;10.43;;;;;;;21.06;67.96;100586.91;698076;28;43608;-62
2021/07/13 00:45:29;;;;;;;12.13;10.18;;;;;;;21.09;68.17;100592.97;697462;28;32474;-62
2021/07/13 00:45:51;;;;;;;12.38;10.77;;;;;;;21.10;68.08;100589.13;699563;28;7744;-62
2021/07/13 00:46:12;;;;;;;12.30;11.00;;;;;;;21.11;67.90;100588.88;698959;28;26491;-62
2021/07/13 00:46:43;;;;;;;11.88;10.60;;;;;;;21.12;68.20;100592.47;698913;28;22508;-62
2021/07/13 00:47:04;;;;;;;12.05;10.82;;;;;;;21.12;67.90;100585.06;696305;28;118372;-62
2021/07/13 00:47:27;;;;;;;11.30;10.27;;;;;;;21.13;67.86;100588.63;698976;28;21233;-62
2021/07/13 00:47:51;;;;;;;11.35;10.23;;;;;;;21.12;67.75;100586.97;697838;28;69439;-62
2021/07/13 00:48:13;;;;;;;11.82;10.13;;;;;;;21.12;67.96;100590.56;695935;28;92109;-63
2021/07/13 00:48:34;;;;;;;11.20;10.10;;;;;;;21.12;68.06;100592.47;698055;28;38716;-62
2021/07/13 00:48:56;;;;;;;11.00;9.98;;;;;;;21.12;68.00;100598.78;700403;28;1185;-62
2021/07/13 00:49:19;;;;;;;11.18;10.07;;;;;;;21.13;67.97;100596.88;697831;28;46401;-61
2021/07/13 00:49:44;;;;;;;10.52;9.60;;;;;;;21.12;68.03;100592.47;699310;28;15230;-62
2021/07/13 00:50:07;;;;;;;11.43;10.23;;;;;;;21.11;67.93;100594.38;693735;28;101106;-62
2021/07/13 00:50:29;;;;;;;11.50;10.40;;;;;;;21.11;68.09;100591.63;696908;28;899;-62
2021/07/13 00:50:50;;;;;;;11.40;10.23;;;;;;;21.10;67.94;100595.47;694932;28;46298;-62
2021/07/13 00:51:13;;;;;;;11.27;10.13;;;;;;;21.10;68.00;100589.97;697038;28;908;-62
2021/07/13 00:51:34;;;;;;;11.57;10.48;;;;;;;21.10;67.95;100592.72;695686;28;37057;-62
2021/07/13 00:52:01;;;;;;;11.23;9.93;;;;;;;21.09;68.03;100593.78;696251;28;61801;-62
2021/07/13 00:52:22;;;;;;;11.48;10.27;;;;;;;21.10;68.24;100595.47;697366;28;46686;-60
2021/07/13 00:52:44;;;;;;;11.32;10.23;;;;;;;21.09;68.19;100593.78;699718;28;2473;-62
2021/07/13 00:53:06;;;;;;;11.50;10.40;;;;;;;21.10;68.04;100591.88;699063;28;26098;-62
2021/07/13 00:53:28;;;;;;;11.38;10.27;;;;;;;21.08;68.19;100603.09;699258;28;14838;-62
2021/07/13 00:53:50;;;;;;;11.00;10.00;;;;;;;21.06;68.03;100595.16;698190;28;45253;-62
2021/07/13 00:54:11;;;;;;;11.13;10.13;;;;;;;21.06;67.98;100595.16;698684;28;30700;-62
2021/07/13 00:54:34;;;;;;;10.88;9.77;;;;;;;21.06;67.80;100595.16;698615;28;44631;-62
2021/07/13 00:54:56;;;;;;;10.90;9.82;;;;;;;21.05;67.88;100593.47;698149;28;45340;-62
2021/07/13 00:55:18;;;;;;;10.85;9.75;;;;;;;21.02;67.81;100591.22;699259;28;1401;-62
2021/07/13 00:55:44;;;;;;;10.68;9.60;;;;;;;21.03;67.80;100589.31;697315;28;61542;-62
2021/07/13 00:56:05;;;;;;;11.35;10.15;;;;;;;21.01;68.05;100586.00;699510;28;997;-62
2021/07/13 00:56:28;;;;;;;11.68;10.48;;;;;;;21.02;67.94;100593.16;699007;28;14836;-62
2021/07/13 00:56:51;;;;;;;10.98;9.98;;;;;;;21.01;68.03;100589.56;697911;28;67090;-63
2021/07/13 00:57:13;;;;;;;10.68;9.68;;;;;;;21.01;68.10;100592.31;697669;28;60267;-62
2021/07/13 00:57:36;;;;;;;10.25;9.25;;;;;;;21.01;68.14;100586.00;697101;28;38878;-62
2021/07/13 00:57:58;;;;;;;10.90;9.90;;;;;;;21.00;68.17;100587.91;697683;28;70405;-62
2021/07/13 00:58:19;;;;;;;10.77;9.77;;;;;;;21.00;67.97;100587.91;697534;28;43087;-62
2021/07/13 00:58:40;;;;;;;10.73;9.63;;;;;;;21.00;68.21;100587.91;698143;28;22411;-62
2021/07/13 00:59:01;;;;;;;11.13;9.85;;;;;;;21.01;68.02;100586.81;699150;28;23361;-62
2021/07/13 00:59:23;;;;;;;11.07;9.98;;;;;;;21.00;67.94;100589.81;698233;28;22467;-62
2021/07/13 00:59:45;;;;;;;11.00;9.90;;;;;;;20.99;68.12;100586.25;698253;28;46268;-62
2021/07/13 01:00:08;;;;;;;10.60;9.60;;;;;;;21.00;67.88;100595.28;698610;28;47246;-62
2021/07/13 01:00:30;;;;;;;11.02;10.02;;;;;;;21.00;67.99;100584.31;697349;28;70589;-62
2021/07/13 01:00:52;;;;;;;10.82;9.82;;;;;;;20.99;68.07;100588.16;700240;28;916;-62
2021/07/13 01:01:13;;;;;;;11.52;9.85;;;;;;;20.98;67.92;100579.06;700027;28;924;-62
2021/07/13 01:01:35;;;;;;;10.77;9.70;;;;;;;20.99;68.12;100582.66;699607;28;8167;-62
2021/07/13 01:01:56;;;;;;;10.48;9.40;;;;;;;20.97;68.14;100588.41;699587;28;22945;-62
2021/07/13 01:02:18;;;;;;;10.52;9.45;;;;;;;20.98;68.10;100586.50;699010;28;23518;-62
2021/07/13 01:02:40;;;;;;;10.98;9.95;;;;;;;20.96;68.04;100584.00;698553;28;46314;-62
2021/07/13 01:03:05;;;;;;;12.05;10.68;;;;;;;20.97;68.17;100582.06;697526;28;69437;-62
2021/07/13 01:03:26;;;;;;;11.95;10.75;;;;;;;20.97;68.13;100585.66;696480;28;92192;-62
2021/07/13 01:03:47;;;;;;;11.48;10.38;;;;;;;20.97;68.24;100587.56;699161;28;22397;-62
2021/07/13 01:04:09;;;;;;;12.07;10.90;;;;;;;20.96;68.18;100591.41;699173;28;23485;-62
2021/07/13 01:04:30;;;;;;;12.00;10.70;;;;;;;20.97;68.18;100590.31;698498;28;44346;-62
2021/07/13 01:04:58;;;;;;;10.82;9.82;;;;;;;20.97;68.17;100587.56;697637;28;46368;-62
2021/07/13 01:05:25;;;;;;;11.88;10.52;;;;;;;20.96;68.01;100586.75;697605;28;59626;-62
2021/07/13 01:05:49;;;;;;;11.50;10.02;;;;;;;20.96;68.18;100588.66;697896;28;69008;-62
2021/07/13 01:06:11;;;;;;;11.27;10.27;;;;;;;20.97;68.13;100587.56;697231;28;93111;-62
2021/07/13 01:06:39;;;;;;;11.15;10.15;;;;;;;20.97;68.23;100587.56;697853;28;45218;-62
2021/07/13 01:07:03;;;;;;;10.93;9.93;;;;;;;20.96;68.30;100591.41;695849;28;137809;-62
2021/07/13 01:07:32;;;;;;;10.75;9.75;;;;;;;20.97;68.15;100588.41;692865;28;88644;-62
2021/07/13 01:08:02;;;;;;;11.52;9.85;;;;;;;20.98;68.04;100589.22;691052;28;141907;-62
2021/07/13 01:08:36;;;;;;;11.48;10.27;;;;;;;20.98;68.07;100578.25;692300;28;138759;-62
2021/07/13 01:09:05;;;;;;;10.43;9.52;;;;;;;20.97;67.98;100585.66;692858;28;129845;-62
2021/07/13 01:09:32;;;;;;;11.25;10.10;;;;;;;20.98;68.10;100592.81;694227;28;132846;-62
2021/07/13 01:09:58;;;;;;;11.57;9.95;;;;;;;20.97;68.00;100580.19;693991;28;161039;-62
2021/07/13 01:10:27;;;;;;;12.20;10.25;;;;;;;20.96;68.02;100586.75;695059;28;126201;-62
2021/07/13 01:10:52;;;;;;;11.60;10.50;;;;;;;20.97;68.15;100590.31;694426;28;135890;-63
2021/07/13 01:11:18;;;;;;;11.02;9.95;;;;;;;20.97;68.17;100585.66;695731;28;116187;-62
2021/07/13 01:11:47;;;;;;;11.50;10.35;;;;;;;20.97;68.14;100587.56;695165;28;136486;-62
2021/07/13 01:12:13;;;;;;;11.32;10.10;;;;;;;20.97;68.04;100584.81;694900;28;136201;-62
2021/07/13 01:12:42;;;;;;;11.18;10.13;;;;;;;20.97;68.19;100587.56;694835;28;159407;-62
2021/07/13 01:13:06;;;;;;;11.52;10.43;;;;;;;20.97;68.25;100587.56;695092;28;136220;-62
2021/07/13 01:13:32;;;;;;;11.55;10.45;;;;;;;20.98;68.09;100583.75;696574;28;92311;-61
2021/07/13 01:14:01;;;;;;;11.32;10.20;;;;;;;20.97;68.11;100591.16;695095;28;137857;-62
2021/07/13 01:14:27;;;;;;;11.77;10.60;;;;;;;20.97;68.41;100584.81;695381;28;136255;-61
2021/07/13 01:14:52;;;;;;;11.43;10.30;;;;;;;20.97;68.09;100587.56;695088;28;137558;-62
2021/07/13 01:15:18;;;;;;;13.02;10.40;;;;;;;20.97;68.01;100585.66;697708;28;61681;-61
2021/07/13 01:15:47;;;;;;;11.48;10.10;;;;;;;20.98;68.17;100587.31;696948;28;89760;-62
2021/07/13 01:16:11;;;;;;;11.52;10.43;;;;;;;20.99;67.97;100583.50;694305;28;161509;-61
2021/07/13 01:16:37;;;;;;;12.07;10.98;;;;;;;21.00;68.17;100592.56;695667;28;116524;-62
2021/07/13 01:17:02;;;;;;;11.45;10.38;;;;;;;21.00;68.08;100587.91;695502;28;138853;-61
2021/07/13 01:17:28;;;;;;;11.38;10.27;;;;;;;21.00;68.01;100582.41;696234;28;102354;-62
2021/07/13 01:17:53;;;;;;;11.65;10.55;;;;;;;21.02;67.77;100595.91;695540;28;137007;-61
2021/07/13 01:18:21;;;;;;;11.68;10.45;;;;;;;21.00;68.33;100579.69;697525;28;61638;-61
2021/07/13 01:18:48;;;;;;;12.15;10.95;;;;;;;20.98;68.16;100581.81;698320;28;60900;-61
2021/07/13 01:19:15;;;;;;;11.80;10.70;;;;;;;20.97;68.09;100582.06;695045;28;139337;-61
2021/07/13 01:19:53;;;;;;;11.80;10.60;;;;;;;20.97;68.10;100585.66;696907;28;62068;-61
2021/07/13 01:20:32;;;;;;;11.50;10.30;;;;;;;20.96;68.15;100580.44;695106;28;132985;-61
2021/07/13 01:21:03;;;;;;;11.68;10.48;;;;;;;20.95;68.10;100579.56;695174;28;137640;-61
2021/07/13 01:21:40;;;;;;;11.70;10.60;;;;;;;20.94;68.21;100577.06;691063;28;156056;-61
2021/07/13 01:22:03;;;;;;;11.73;10.63;;;;;;;20.93;68.20;100575.44;690395;28;160643;-61
2021/07/13 01:22:28;;;;;;;11.93;10.73;;;;;;;20.92;68.29;100573.75;693429;28;67609;-62
2021/07/13 01:22:50;;;;;;;12.45;10.55;;;;;;;20.92;68.43;100576.50;689686;28;115732;-61
2021/07/13 01:23:18;;;;;;;12.07;10.50;;;;;;;20.92;68.41;100573.75;692640;28;69396;-61
2021/07/13 01:23:56;;;;;;;11.88;10.63;;;;;;;20.90;68.27;100570.44;694887;28;136386;-62
2021/07/13 01:24:29;;;;;;;11.90;10.80;;;;;;;20.90;68.46;100581.44;694592;28;137690;-61
2021/07/13 01:25:03;;;;;;;12.38;11.18;;;;;;;20.87;68.48;100572.59;694600;28;135997;-62
2021/07/13 01:25:33;;;;;;;11.85;10.75;;;;;;;20.87;68.66;100572.59;694575;28;161222;-61
2021/07/13 01:26:03;;;;;;;11.43;10.32;;;;;;;20.86;68.39;100575.56;694924;28;137729;-62
2021/07/13 01:26:31;;;;;;;12.00;10.80;;;;;;;20.84;68.51;100570.34;694475;28;138681;-61
2021/07/13 01:27:03;;;;;;;11.82;10.63;;;;;;;20.85;68.60;100568.44;695053;28;137520;-61
2021/07/13 01:28:04;;;;;;;12.27;11.07;;;;;;;20.83;68.57;100568.69;694880;28;136047;-61
2021/07/13 01:28:25;;;;;;;12.20;10.93;;;;;;;20.82;68.60;100567.03;681227;28;138473;-61
2021/07/13 01:28:49;;;;;;;12.35;11.07;;;;;;;20.83;68.74;100578.81;685259;28;22472;-61
2021/07/13 01:29:12;;;;;;;11.70;10.50;;;;;;;20.83;68.59;100571.44;681780;28;90751;-61
2021/07/13 01:29:35;;;;;;;11.93;10.55;;;;;;;20.83;68.54;100568.69;682027;28;69274;-62
2021/07/13 01:29:56;;;;;;;11.60;10.40;;;;;;;20.85;68.67;100573.94;683041;28;70330;-62
2021/07/13 01:30:19;;;;;;;10.88;9.88;;;;;;;20.85;68.65;100579.44;685047;28;22394;-61
2021/07/13 01:30:44;;;;;;;10.70;9.65;;;;;;;20.86;68.66;100575.56;682621;28;67478;-61
2021/07/13 01:31:11;;;;;;;12.57;11.00;;;;;;;20.86;68.58;100572.84;685853;28;85205;-62
2021/07/13 01:31:32;;;;;;;11.85;10.65;;;;;;;20.87;68.49;100571.75;694611;28;138036;-62
2021/07/13 01:31:54;;;;;;;12.25;11.05;;;;;;;20.87;68.37;100575.31;698746;28;21511;-61
2021/07/13 01:32:17;;;;;;;12.25;11.07;;;;;;;20.87;68.63;100569.03;698833;28;24317;-61
2021/07/13 01:32:40;;;;;;;12.27;11.07;;;;;;;20.86;68.43;100573.69;696617;28;92333;-61
2021/07/13 01:33:04;;;;;;;12.45;11.18;;;;;;;20.87;68.47;100578.06;697879;28;68378;-61
2021/07/13 01:33:26;;;;;;;12.43;10.73;;;;;;;20.88;68.26;100574.25;699537;28;15095;-62
2021/07/13 01:33:49;;;;;;;13.88;10.63;;;;;;;20.89;68.28;100572.34;698184;28;46240;-62
2021/07/13 01:34:15;;;;;;;13.07;11.43;;;;;;;20.90;68.40;100567.69;698451;28;46329;-61
2021/07/13 01:34:40;;;;;;;12.40;11.15;;;;;;;20.91;68.32;100569.34;695219;28;138141;-61
2021/07/13 01:35:04;;;;;;;12.38;11.02;;;;;;;20.92;68.21;100568.28;696321;28;92360;-61
2021/07/13 01:35:29;;;;;;;12.73;11.45;;;;;;;20.94;68.36;100572.44;695815;28;115157;-62
2021/07/13 01:35:54;;;;;;;13.20;11.80;;;;;;;20.93;68.19;100568.03;692718;28;89898;-61
2021/07/13 01:36:17;;;;;;;12.25;11.15;;;;;;;20.95;68.28;100567.78;692015;28;98808;-61
2021/07/13 01:36:41;;;;;;;12.50;11.20;;;;;;;20.96;68.08;100572.19;693228;28;69848;-61
2021/07/13 01:37:03;;;;;;;12.73;11.52;;;;;;;20.97;68.20;100566.44;693772;28;90802;-61
2021/07/13 01:37:25;;;;;;;12.70;11.40;;;;;;;20.98;68.21;100570.84;694686;28;69365;-61
2021/07/13 01:37:49;;;;;;;12.35;11.10;;;;;;;20.98;68.08;100568.09;697982;28;22397;-62
2021/07/13 01:38:12;;;;;;;12.73;11.45;;;;;;;20.99;68.09;100572.50;696463;28;93269;-61
2021/07/13 01:38:37;;;;;;;12.13;11.00;;;;;;;21.00;68.15;100559.59;696556;28;70510;-61
2021/07/13 01:38:59;;;;;;;12.63;11.32;;;;;;;21.02;68.07;100571.19;698074;28;115164;-61
2021/07/13 01:39:21;;;;;;;12.65;11.35;;;;;;;21.02;68.04;100560.22;700278;28;43814;-62
2021/07/13 01:39:44;;;;;;;13.10;11.27;;;;;;;21.03;68.00;100562.69;701686;28;11677;-61
2021/07/13 01:40:08;;;;;;;13.88;11.52;;;;;;;21.04;67.94;100558.03;702284;28;939;-61
2021/07/13 01:40:43;;;;;;;13.63;11.65;;;;;;;21.03;68.04;100559.09;698574;28;98951;-62
2021/07/13 01:41:07;;;;;;;11.88;10.63;;;;;;;21.03;68.02;100559.09;695400;28;138894;-61
2021/07/13 01:41:29;;;;;;;12.90;11.70;;;;;;;21.01;68.00;100555.78;695993;28;90917;-62
2021/07/13 01:41:53;;;;;;;12.82;11.57;;;;;;;21.00;68.00;100556.84;698196;28;46391;-62
2021/07/13 01:42:14;;;;;;;13.27;11.68;;;;;;;20.99;68.07;100564.28;696182;28;93455;-61
2021/07/13 01:42:39;;;;;;;13.20;11.57;;;;;;;20.99;68.09;100557.97;698980;28;20572;-61
2021/07/13 01:43:00;;;;;;;12.13;10.93;;;;;;;20.97;68.24;100560.97;697974;28;47166;-62
2021/07/13 01:43:23;;;;;;;12.18;10.98;;;;;;;20.95;67.94;100559.53;698107;28;47156;-61
2021/07/13 01:43:45;;;;;;;11.93;10.73;;;;;;;20.95;68.26;100565.03;699569;28;1012;-62
2021/07/13 01:44:10;;;;;;;12.90;11.60;;;;;;;20.93;68.44;100561.72;698298;28;46271;-61
2021/07/13 01:44:32;;;;;;;11.98;10.88;;;;;;;20.88;68.26;100560.53;696884;28;83296;-61
2021/07/13 01:44:54;;;;;;;11.77;10.50;;;;;;;20.91;68.25;100564.69;696576;28;52378;-61
2021/07/13 01:45:16;;;;;;;11.98;10.73;;;;;;;20.90;68.41;100564.94;697967;28;45270;-62
2021/07/13 01:45:40;;;;;;;15.07;11.10;;;;;;;20.87;68.40;100558.03;700179;28;881;-61
2021/07/13 01:46:02;;;;;;;11.52;10.35;;;;;;;20.87;68.47;100564.34;697815;28;66843;-61
2021/07/13 01:46:24;;;;;;;11.85;10.75;;;;;;;20.86;68.77;100564.59;697867;28;45359;-61
2021/07/13 01:46:46;;;;;;;12.10;10.80;;;;;;;20.85;68.48;100566.53;696785;28;1754;-63
2021/07/13 01:47:08;;;;;;;12.05;10.80;;;;;;;20.84;68.59;100567.59;693102;28;36560;-61
2021/07/13 01:47:30;;;;;;;13.02;11.20;;;;;;;20.85;68.52;100565.69;693454;28;35080;-62
2021/07/13 01:47:52;;;;;;;12.25;10.90;;;;;;;20.83;68.67;100568.69;693077;28;40729;-62
2021/07/13 01:48:13;;;;;;;11.60;10.40;;;;;;;20.83;68.46;100557.72;693397;28;22449;-62